sensor_id;sensor_type;location;lat;lon;timestamp;P1;durP1;ratioP1;P2;durP2;ratioP2
45382;SDS011;42455;51.660;5.824;2022-08-19T00:00:26;23.0;;;21.0;;
45382;SDS011;42455;51.660;5.824;2022-08-19T00:05:32;22.0;;;20.5;;
45382;SDS011;42455;51.660;5.824;2022-08-19T00:10:39;20.0;;;18.0;;
45382;SDS011;42455;51.660;5.824;2022-08-19T00:15:45;22.0;;;20.0;;
45382;SDS011;42455;51.660;5.824;2022-08-19T00:20:51;24.5;;;22.0;;
45382;SDS011;42455;51.660;5.824;2022-08-19T00:25:57;21.0;;;19.0;;
45382;SDS011;42455;51.660;5.824;2022-08-19T00:31:04;20.0;;;18.0;;
45382;SDS011;42455;51.660;5.824;2022-08-19T00:36:10;21.0;;;19.0;;
45382;SDS011;42455;51.660;5.824;2022-08-19T00:41:18;21.0;;;19.0;;
45382;SDS011;42455;51.660;5.824;2022-08-19T00:46:22;21.0;;;19.0;;
45382;SDS011;42455;51.660;5.824;2022-08-19T00:51:29;21.5;;;20.0;;
45382;SDS011;42455;51.660;5.824;2022-08-19T00:56:34;21.0;;;19.5;;
45382;SDS011;42455;51.660;5.824;2022-08-19T01:01:41;22.0;;;20.0;;
45382;SDS011;42455;51.660;5.824;2022-08-19T01:06:47;23.0;;;21.0;;
45382;SDS011;42455;51.660;5.824;2022-08-19T01:11:53;24.0;;;22.0;;
45382;SDS011;42455;51.660;5.824;2022-08-19T01:16:59;24.5;;;22.0;;
45382;SDS011;42455;51.660;5.824;2022-08-19T01:22:11;26.0;;;24.0;;
45382;SDS011;42455;51.660;5.824;2022-08-19T01:27:12;27.0;;;25.0;;
45382;SDS011;42455;51.660;5.824;2022-08-19T01:32:18;28.0;;;26.0;;
45382;SDS011;42455;51.660;5.824;2022-08-19T01:37:24;29.0;;;26.5;;
45382;SDS011;42455;51.660;5.824;2022-08-19T01:42:30;29.0;;;26.5;;
45382;SDS011;42455;51.660;5.824;2022-08-19T01:47:37;28.0;;;26.0;;
45382;SDS011;42455;51.660;5.824;2022-08-19T01:52:43;29.0;;;27.0;;
45382;SDS011;42455;51.660;5.824;2022-08-19T01:57:53;27.5;;;25.0;;
45382;SDS011;42455;51.660;5.824;2022-08-19T02:02:55;27.0;;;24.5;;
45382;SDS011;42455;51.660;5.824;2022-08-19T02:08:01;26.0;;;23.0;;
45382;SDS011;42455;51.660;5.824;2022-08-19T02:13:08;29.0;;;27.0;;
45382;SDS011;42455;51.660;5.824;2022-08-19T02:18:14;28.0;;;26.0;;
45382;SDS011;42455;51.660;5.824;2022-08-19T02:23:20;29.0;;;26.5;;
45382;SDS011;42455;51.660;5.824;2022-08-19T02:28:26;29.0;;;27.0;;
45382;SDS011;42455;51.660;5.824;2022-08-19T02:33:32;30.0;;;27.0;;
45382;SDS011;42455;51.660;5.824;2022-08-19T02:38:39;29.0;;;26.0;;
45382;SDS011;42455;51.660;5.824;2022-08-19T02:43:45;29.0;;;26.5;;
45382;SDS011;42455;51.660;5.824;2022-08-19T02:48:52;29.5;;;27.0;;
45382;SDS011;42455;51.660;5.824;2022-08-19T02:53:57;28.0;;;26.0;;
45382;SDS011;42455;51.660;5.824;2022-08-19T02:59:04;28.0;;;26.0;;
45382;SDS011;42455;51.660;5.824;2022-08-19T03:04:11;31.0;;;28.0;;
45382;SDS011;42455;51.660;5.824;2022-08-19T03:09:16;26.0;;;23.0;;
45382;SDS011;42455;51.660;5.824;2022-08-19T03:14:22;24.0;;;22.0;;
45382;SDS011;42455;51.660;5.824;2022-08-19T03:19:28;26.0;;;24.0;;
45382;SDS011;42455;51.660;5.824;2022-08-19T03:24:34;31.0;;;28.0;;
45382;SDS011;42455;51.660;5.824;2022-08-19T03:29:41;34.0;;;31.0;;
45382;SDS011;42455;51.660;5.824;2022-08-19T03:34:47;34.0;;;31.0;;
45382;SDS011;42455;51.660;5.824;2022-08-19T03:39:53;35.5;;;32.0;;
45382;SDS011;42455;51.660;5.824;2022-08-19T03:44:59;35.5;;;32.0;;
45382;SDS011;42455;51.660;5.824;2022-08-19T03:50:06;35.0;;;32.0;;
45382;SDS011;42455;51.660;5.824;2022-08-19T03:55:12;33.0;;;30.0;;
45382;SDS011;42455;51.660;5.824;2022-08-19T04:00:18;35.0;;;31.5;;
45382;SDS011;42455;51.660;5.824;2022-08-19T04:05:24;32.0;;;29.0;;
45382;SDS011;42455;51.660;5.824;2022-08-19T04:10:30;32.0;;;29.0;;
45382;SDS011;42455;51.660;5.824;2022-08-19T04:15:38;31.0;;;28.0;;
45382;SDS011;42455;51.660;5.824;2022-08-19T04:20:43;32.0;;;29.0;;
45382;SDS011;42455;51.660;5.824;2022-08-19T04:25:49;31.0;;;28.0;;
45382;SDS011;42455;51.660;5.824;2022-08-19T04:30:54;33.0;;;30.0;;
45382;SDS011;42455;51.660;5.824;2022-08-19T04:36:00;35.0;;;32.0;;
45382;SDS011;42455;51.660;5.824;2022-08-19T04:41:07;36.5;;;33.0;;
45382;SDS011;42455;51.660;5.824;2022-08-19T04:46:13;37.0;;;33.0;;
45382;SDS011;42455;51.660;5.824;2022-08-19T04:51:19;39.5;;;35.0;;
45382;SDS011;42455;51.660;5.824;2022-08-19T04:56:25;41.0;;;36.5;;
45382;SDS011;42455;51.660;5.824;2022-08-19T05:01:32;40.0;;;35.0;;
45382;SDS011;42455;51.660;5.824;2022-08-19T05:06:38;39.0;;;34.5;;
45382;SDS011;42455;51.660;5.824;2022-08-19T05:11:44;40.0;;;36.0;;
45382;SDS011;42455;51.660;5.824;2022-08-19T05:16:50;39.0;;;35.0;;
45382;SDS011;42455;51.660;5.824;2022-08-19T05:21:56;40.0;;;36.0;;
45382;SDS011;42455;51.660;5.824;2022-08-19T05:27:03;40.0;;;36.0;;
45382;SDS011;42455;51.660;5.824;2022-08-19T05:32:09;40.0;;;35.0;;
45382;SDS011;42455;51.660;5.824;2022-08-19T05:37:15;41.0;;;37.0;;
45382;SDS011;42455;51.660;5.824;2022-08-19T05:42:21;43.0;;;38.0;;
45382;SDS011;42455;51.660;5.824;2022-08-19T05:47:27;44.0;;;39.0;;
45382;SDS011;42455;51.660;5.824;2022-08-19T05:52:34;44.0;;;40.0;;
45382;SDS011;42455;51.660;5.824;2022-08-19T05:57:40;45.0;;;40.0;;
45382;SDS011;42455;51.660;5.824;2022-08-19T06:02:46;46.5;;;41.0;;
45382;SDS011;42455;51.660;5.824;2022-08-19T06:07:52;51.5;;;42.0;;
45382;SDS011;42455;51.660;5.824;2022-08-19T06:12:58;57.0;;;47.0;;
45382;SDS011;42455;51.660;5.824;2022-08-19T06:18:05;60.0;;;50.0;;
45382;SDS011;42455;51.660;5.824;2022-08-19T06:23:11;61.0;;;50.0;;
45382;SDS011;42455;51.660;5.824;2022-08-19T06:28:17;61.0;;;51.0;;
45382;SDS011;42455;51.660;5.824;2022-08-19T06:33:23;59.0;;;50.0;;
45382;SDS011;42455;51.660;5.824;2022-08-19T06:38:29;57.0;;;49.0;;
45382;SDS011;42455;51.660;5.824;2022-08-19T06:43:36;57.0;;;49.0;;
45382;SDS011;42455;51.660;5.824;2022-08-19T06:48:42;53.0;;;47.0;;
45382;SDS011;42455;51.660;5.824;2022-08-19T06:53:48;49.0;;;43.5;;
45382;SDS011;42455;51.660;5.824;2022-08-19T06:58:54;48.0;;;43.0;;
45382;SDS011;42455;51.660;5.824;2022-08-19T07:04:00;49.0;;;44.0;;
45382;SDS011;42455;51.660;5.824;2022-08-19T07:09:07;47.0;;;42.0;;
45382;SDS011;42455;51.660;5.824;2022-08-19T07:14:13;46.0;;;41.0;;
45382;SDS011;42455;51.660;5.824;2022-08-19T07:19:19;47.0;;;42.0;;
45382;SDS011;42455;51.660;5.824;2022-08-19T07:24:26;45.0;;;40.0;;
45382;SDS011;42455;51.660;5.824;2022-08-19T07:29:33;43.0;;;38.5;;
45382;SDS011;42455;51.660;5.824;2022-08-19T07:34:38;43.0;;;38.0;;
45382;SDS011;42455;51.660;5.824;2022-08-19T07:39:44;41.0;;;37.0;;
45382;SDS011;42455;51.660;5.824;2022-08-19T07:44:50;39.0;;;35.0;;
45382;SDS011;42455;51.660;5.824;2022-08-19T07:49:56;39.0;;;35.0;;
45382;SDS011;42455;51.660;5.824;2022-08-19T07:55:03;40.0;;;36.0;;
45382;SDS011;42455;51.660;5.824;2022-08-19T08:00:09;39.0;;;35.0;;
45382;SDS011;42455;51.660;5.824;2022-08-19T08:05:15;40.0;;;35.5;;
45382;SDS011;42455;51.660;5.824;2022-08-19T08:10:21;41.5;;;37.0;;
45382;SDS011;42455;51.660;5.824;2022-08-19T08:15:27;38.0;;;34.0;;
45382;SDS011;42455;51.660;5.824;2022-08-19T08:20:34;37.0;;;33.0;;
45382;SDS011;42455;51.660;5.824;2022-08-19T08:25:40;39.0;;;35.0;;
45382;SDS011;42455;51.660;5.824;2022-08-19T08:30:47;36.0;;;33.0;;
45382;SDS011;42455;51.660;5.824;2022-08-19T08:35:52;34.0;;;30.0;;
45382;SDS011;42455;51.660;5.824;2022-08-19T08:41:13;33.0;;;30.0;;
45382;SDS011;42455;51.660;5.824;2022-08-19T08:46:09;30.0;;;27.0;;
45382;SDS011;42455;51.660;5.824;2022-08-19T08:51:12;27.0;;;24.0;;
45382;SDS011;42455;51.660;5.824;2022-08-19T08:56:17;27.0;;;25.0;;
45382;SDS011;42455;51.660;5.824;2022-08-19T09:01:23;26.0;;;23.0;;
45382;SDS011;42455;51.660;5.824;2022-08-19T09:06:38;25.0;;;23.0;;
45382;SDS011;42455;51.660;5.824;2022-08-19T09:11:44;23.0;;;21.0;;
45382;SDS011;42455;51.660;5.824;2022-08-19T09:16:42;24.0;;;21.0;;
45382;SDS011;42455;51.660;5.824;2022-08-19T09:21:48;25.0;;;22.0;;
45382;SDS011;42455;51.660;5.824;2022-08-19T09:26:54;23.0;;;21.0;;
45382;SDS011;42455;51.660;5.824;2022-08-19T09:32:01;25.0;;;23.0;;
45382;SDS011;42455;51.660;5.824;2022-08-19T09:37:07;28.0;;;25.0;;
45382;SDS011;42455;51.660;5.824;2022-08-19T09:42:13;31.0;;;28.0;;
45382;SDS011;42455;51.660;5.824;2022-08-19T09:47:19;32.0;;;29.5;;
45382;SDS011;42455;51.660;5.824;2022-08-19T09:52:25;31.0;;;28.0;;
45382;SDS011;42455;51.660;5.824;2022-08-19T09:57:32;30.5;;;28.0;;
45382;SDS011;42455;51.660;5.824;2022-08-19T10:02:37;33.0;;;30.0;;
45382;SDS011;42455;51.660;5.824;2022-08-19T10:07:43;31.0;;;28.0;;
45382;SDS011;42455;51.660;5.824;2022-08-19T10:12:49;31.0;;;28.0;;
45382;SDS011;42455;51.660;5.824;2022-08-19T10:17:56;28.0;;;25.0;;
45382;SDS011;42455;51.660;5.824;2022-08-19T10:23:02;25.0;;;23.0;;
45382;SDS011;42455;51.660;5.824;2022-08-19T10:28:08;25.0;;;23.0;;
45382;SDS011;42455;51.660;5.824;2022-08-19T10:33:14;22.0;;;20.0;;
45382;SDS011;42455;51.660;5.824;2022-08-19T10:38:20;24.0;;;22.0;;
45382;SDS011;42455;51.660;5.824;2022-08-19T10:43:26;27.0;;;24.0;;
45382;SDS011;42455;51.660;5.824;2022-08-19T10:48:33;25.0;;;23.0;;
45382;SDS011;42455;51.660;5.824;2022-08-19T10:53:39;24.0;;;22.0;;
45382;SDS011;42455;51.660;5.824;2022-08-19T10:58:45;24.0;;;22.0;;
45382;SDS011;42455;51.660;5.824;2022-08-19T11:03:51;25.0;;;22.0;;
45382;SDS011;42455;51.660;5.824;2022-08-19T11:08:58;22.0;;;20.0;;
45382;SDS011;42455;51.660;5.824;2022-08-19T11:14:04;24.0;;;22.0;;
45382;SDS011;42455;51.660;5.824;2022-08-19T11:19:10;23.0;;;21.0;;
45382;SDS011;42455;51.660;5.824;2022-08-19T11:24:17;25.0;;;22.0;;
45382;SDS011;42455;51.660;5.824;2022-08-19T11:29:22;26.0;;;24.0;;
45382;SDS011;42455;51.660;5.824;2022-08-19T11:34:29;24.0;;;22.0;;
45382;SDS011;42455;51.660;5.824;2022-08-19T11:39:35;27.0;;;25.0;;
45382;SDS011;42455;51.660;5.824;2022-08-19T11:44:41;26.0;;;23.0;;
45382;SDS011;42455;51.660;5.824;2022-08-19T11:49:47;27.0;;;24.0;;
45382;SDS011;42455;51.660;5.824;2022-08-19T12:00:00;19.0;;;18.0;;
45382;SDS011;42455;51.660;5.824;2022-08-19T12:05:06;21.0;;;19.0;;
45382;SDS011;42455;51.660;5.824;2022-08-19T12:10:12;22.0;;;20.0;;
45382;SDS011;42455;51.660;5.824;2022-08-19T12:15:18;22.0;;;20.0;;
45382;SDS011;42455;51.660;5.824;2022-08-19T12:20:24;22.0;;;20.0;;
45382;SDS011;42455;51.660;5.824;2022-08-19T12:25:31;23.0;;;21.0;;
45382;SDS011;42455;51.660;5.824;2022-08-19T12:30:37;23.0;;;21.0;;
45382;SDS011;42455;51.660;5.824;2022-08-19T12:35:46;22.0;;;20.0;;
45382;SDS011;42455;51.660;5.824;2022-08-19T12:40:49;20.0;;;19.0;;
45382;SDS011;42455;51.660;5.824;2022-08-19T12:45:56;20.0;;;19.0;;
45382;SDS011;42455;51.660;5.824;2022-08-19T12:51:06;19.0;;;17.0;;
45382;SDS011;42455;51.660;5.824;2022-08-19T12:56:10;22.0;;;20.0;;
45382;SDS011;42455;51.660;5.824;2022-08-19T13:01:15;23.0;;;21.0;;
45382;SDS011;42455;51.660;5.824;2022-08-19T13:06:20;23.0;;;21.0;;
45382;SDS011;42455;51.660;5.824;2022-08-19T13:11:27;19.0;;;17.0;;
45382;SDS011;42455;51.660;5.824;2022-08-19T13:16:33;20.0;;;18.0;;
45382;SDS011;42455;51.660;5.824;2022-08-19T13:21:40;21.0;;;19.0;;
45382;SDS011;42455;51.660;5.824;2022-08-19T13:26:46;23.0;;;21.0;;
45382;SDS011;42455;51.660;5.824;2022-08-19T13:31:52;20.0;;;18.0;;
45382;SDS011;42455;51.660;5.824;2022-08-19T13:36:58;18.0;;;16.0;;
45382;SDS011;42455;51.660;5.824;2022-08-19T13:42:05;19.0;;;18.0;;
45382;SDS011;42455;51.660;5.824;2022-08-19T13:47:11;19.0;;;17.0;;
45382;SDS011;42455;51.660;5.824;2022-08-19T13:52:17;19.0;;;17.0;;
45382;SDS011;42455;51.660;5.824;2022-08-19T13:57:23;20.5;;;18.5;;
45382;SDS011;42455;51.660;5.824;2022-08-19T14:02:29;20.0;;;18.0;;
45382;SDS011;42455;51.660;5.824;2022-08-19T14:07:36;20.0;;;18.0;;
45382;SDS011;42455;51.660;5.824;2022-08-19T14:12:42;24.0;;;22.0;;
45382;SDS011;42455;51.660;5.824;2022-08-19T14:17:48;24.0;;;22.0;;
45382;SDS011;42455;51.660;5.824;2022-08-19T14:22:54;26.0;;;24.0;;
45382;SDS011;42455;51.660;5.824;2022-08-19T14:28:00;26.0;;;24.0;;
45382;SDS011;42455;51.660;5.824;2022-08-19T14:33:07;29.0;;;26.0;;
45382;SDS011;42455;51.660;5.824;2022-08-19T14:38:17;25.0;;;23.0;;
45382;SDS011;42455;51.660;5.824;2022-08-19T14:43:19;23.0;;;21.0;;
45382;SDS011;42455;51.660;5.824;2022-08-19T14:48:25;21.0;;;19.0;;
45382;SDS011;42455;51.660;5.824;2022-08-19T14:53:32;20.0;;;18.0;;
45382;SDS011;42455;51.660;5.824;2022-08-19T14:58:38;18.0;;;16.0;;
45382;SDS011;42455;51.660;5.824;2022-08-19T15:03:44;15.0;;;14.0;;
45382;SDS011;42455;51.660;5.824;2022-08-19T15:08:50;18.0;;;16.0;;
45382;SDS011;42455;51.660;5.824;2022-08-19T15:13:57;17.0;;;16.0;;
45382;SDS011;42455;51.660;5.824;2022-08-19T15:19:03;15.0;;;14.0;;
45382;SDS011;42455;51.660;5.824;2022-08-19T15:24:09;21.0;;;13.0;;
45382;SDS011;42455;51.660;5.824;2022-08-19T15:29:15;17.0;;;14.0;;
45382;SDS011;42455;51.660;5.824;2022-08-19T15:34:21;14.0;;;13.0;;
45382;SDS011;42455;51.660;5.824;2022-08-19T15:39:27;15.0;;;13.0;;
45382;SDS011;42455;51.660;5.824;2022-08-19T15:44:33;15.0;;;13.0;;
45382;SDS011;42455;51.660;5.824;2022-08-19T15:49:39;16.0;;;15.0;;
45382;SDS011;42455;51.660;5.824;2022-08-19T15:54:45;16.0;;;14.0;;
45382;SDS011;42455;51.660;5.824;2022-08-19T15:59:52;19.0;;;17.0;;
45382;SDS011;42455;51.660;5.824;2022-08-19T16:04:57;19.0;;;17.0;;
45382;SDS011;42455;51.660;5.824;2022-08-19T16:10:04;20.0;;;18.0;;
45382;SDS011;42455;51.660;5.824;2022-08-19T16:15:10;20.0;;;18.0;;
45382;SDS011;42455;51.660;5.824;2022-08-19T16:20:15;17.0;;;15.5;;
45382;SDS011;42455;51.660;5.824;2022-08-19T16:25:22;17.0;;;15.0;;
45382;SDS011;42455;51.660;5.824;2022-08-19T16:30:28;16.0;;;14.0;;
45382;SDS011;42455;51.660;5.824;2022-08-19T16:35:34;14.0;;;12.0;;
45382;SDS011;42455;51.660;5.824;2022-08-19T16:40:40;13.0;;;11.0;;
45382;SDS011;42455;51.660;5.824;2022-08-19T16:45:47;15.0;;;13.0;;
45382;SDS011;42455;51.660;5.824;2022-08-19T16:50:53;14.0;;;13.0;;
45382;SDS011;42455;51.660;5.824;2022-08-19T16:55:59;17.0;;;15.0;;
45382;SDS011;42455;51.660;5.824;2022-08-19T17:01:06;18.0;;;16.0;;
45382;SDS011;42455;51.660;5.824;2022-08-19T17:06:12;19.0;;;17.0;;
45382;SDS011;42455;51.660;5.824;2022-08-19T17:11:18;19.5;;;17.5;;
45382;SDS011;42455;51.660;5.824;2022-08-19T17:16:27;21.0;;;18.0;;
45382;SDS011;42455;51.660;5.824;2022-08-19T17:21:31;20.0;;;18.0;;
45382;SDS011;42455;51.660;5.824;2022-08-19T17:26:36;20.5;;;18.0;;
45382;SDS011;42455;51.660;5.824;2022-08-19T17:31:42;21.0;;;19.0;;
45382;SDS011;42455;51.660;5.824;2022-08-19T17:36:49;20.0;;;18.0;;
45382;SDS011;42455;51.660;5.824;2022-08-19T17:41:55;20.0;;;18.0;;
45382;SDS011;42455;51.660;5.824;2022-08-19T17:47:01;21.0;;;19.0;;
45382;SDS011;42455;51.660;5.824;2022-08-19T17:52:07;21.0;;;18.0;;
45382;SDS011;42455;51.660;5.824;2022-08-19T17:57:13;21.0;;;19.0;;
45382;SDS011;42455;51.660;5.824;2022-08-19T18:02:20;22.0;;;19.0;;
45382;SDS011;42455;51.660;5.824;2022-08-19T18:07:26;22.0;;;20.0;;
45382;SDS011;42455;51.660;5.824;2022-08-19T18:12:32;21.0;;;19.0;;
45382;SDS011;42455;51.660;5.824;2022-08-19T18:17:38;21.5;;;19.0;;
45382;SDS011;42455;51.660;5.824;2022-08-19T18:22:46;20.0;;;18.0;;
45382;SDS011;42455;51.660;5.824;2022-08-19T18:27:52;18.0;;;16.5;;
45382;SDS011;42455;51.660;5.824;2022-08-19T18:32:57;18.0;;;16.0;;
45382;SDS011;42455;51.660;5.824;2022-08-19T18:38:03;18.0;;;16.0;;
45382;SDS011;42455;51.660;5.824;2022-08-19T18:43:09;18.0;;;16.0;;
45382;SDS011;42455;51.660;5.824;2022-08-19T18:48:16;19.0;;;17.0;;
45382;SDS011;42455;51.660;5.824;2022-08-19T18:53:22;18.0;;;16.0;;
45382;SDS011;42455;51.660;5.824;2022-08-19T18:58:30;18.0;;;17.0;;
45382;SDS011;42455;51.660;5.824;2022-08-19T19:03:34;19.0;;;17.0;;
45382;SDS011;42455;51.660;5.824;2022-08-19T19:08:40;18.0;;;16.0;;
45382;SDS011;42455;51.660;5.824;2022-08-19T19:13:46;16.5;;;15.0;;
45382;SDS011;42455;51.660;5.824;2022-08-19T19:18:53;17.0;;;15.0;;
45382;SDS011;42455;51.660;5.824;2022-08-19T19:23:59;16.0;;;14.0;;
45382;SDS011;42455;51.660;5.824;2022-08-19T19:29:05;16.0;;;15.0;;
45382;SDS011;42455;51.660;5.824;2022-08-19T19:34:12;16.0;;;14.0;;
45382;SDS011;42455;51.660;5.824;2022-08-19T19:39:18;18.0;;;16.0;;
45382;SDS011;42455;51.660;5.824;2022-08-19T19:44:24;20.0;;;18.0;;
45382;SDS011;42455;51.660;5.824;2022-08-19T19:49:30;18.0;;;16.0;;
45382;SDS011;42455;51.660;5.824;2022-08-19T19:54:36;17.0;;;16.0;;
45382;SDS011;42455;51.660;5.824;2022-08-19T19:59:42;18.0;;;16.0;;
45382;SDS011;42455;51.660;5.824;2022-08-19T20:04:49;18.0;;;16.5;;
45382;SDS011;42455;51.660;5.824;2022-08-19T20:09:55;18.0;;;16.0;;
45382;SDS011;42455;51.660;5.824;2022-08-19T20:15:01;18.0;;;16.0;;
45382;SDS011;42455;51.660;5.824;2022-08-19T20:20:08;16.0;;;14.0;;
45382;SDS011;42455;51.660;5.824;2022-08-19T20:25:14;16.0;;;14.0;;
45382;SDS011;42455;51.660;5.824;2022-08-19T20:30:20;16.0;;;14.0;;
45382;SDS011;42455;51.660;5.824;2022-08-19T20:35:26;15.0;;;13.0;;
45382;SDS011;42455;51.660;5.824;2022-08-19T20:40:32;15.0;;;14.0;;
45382;SDS011;42455;51.660;5.824;2022-08-19T20:45:39;15.0;;;13.5;;
45382;SDS011;42455;51.660;5.824;2022-08-19T20:50:44;15.0;;;13.0;;
45382;SDS011;42455;51.660;5.824;2022-08-19T20:55:51;15.0;;;14.0;;
45382;SDS011;42455;51.660;5.824;2022-08-19T21:00:58;15.0;;;13.0;;
45382;SDS011;42455;51.660;5.824;2022-08-19T21:06:03;15.0;;;14.0;;
45382;SDS011;42455;51.660;5.824;2022-08-19T21:11:09;15.0;;;14.0;;
45382;SDS011;42455;51.660;5.824;2022-08-19T21:16:15;15.0;;;13.0;;
45382;SDS011;42455;51.660;5.824;2022-08-19T21:21:22;15.0;;;13.0;;
45382;SDS011;42455;51.660;5.824;2022-08-19T21:26:28;15.0;;;13.0;;
45382;SDS011;42455;51.660;5.824;2022-08-19T21:31:34;14.0;;;12.0;;
45382;SDS011;42455;51.660;5.824;2022-08-19T21:36:39;14.0;;;12.0;;
45382;SDS011;42455;51.660;5.824;2022-08-19T21:41:46;13.0;;;12.0;;
45382;SDS011;42455;51.660;5.824;2022-08-19T21:46:52;14.0;;;12.0;;
45382;SDS011;42455;51.660;5.824;2022-08-19T21:51:58;14.0;;;12.0;;
45382;SDS011;42455;51.660;5.824;2022-08-19T21:57:04;13.0;;;12.0;;
45382;SDS011;42455;51.660;5.824;2022-08-19T22:02:11;15.0;;;13.0;;
45382;SDS011;42455;51.660;5.824;2022-08-19T22:07:17;14.5;;;13.0;;
45382;SDS011;42455;51.660;5.824;2022-08-19T22:12:24;15.0;;;13.0;;
45382;SDS011;42455;51.660;5.824;2022-08-19T22:17:29;15.0;;;14.0;;
45382;SDS011;42455;51.660;5.824;2022-08-19T22:22:36;15.0;;;14.0;;
45382;SDS011;42455;51.660;5.824;2022-08-19T22:27:41;15.0;;;14.0;;
45382;SDS011;42455;51.660;5.824;2022-08-19T22:32:50;15.0;;;14.0;;
45382;SDS011;42455;51.660;5.824;2022-08-19T22:37:54;15.0;;;13.0;;
45382;SDS011;42455;51.660;5.824;2022-08-19T22:43:03;15.0;;;14.0;;
45382;SDS011;42455;51.660;5.824;2022-08-19T22:48:07;15.0;;;13.0;;
45382;SDS011;42455;51.660;5.824;2022-08-19T22:53:12;15.0;;;14.0;;
45382;SDS011;42455;51.660;5.824;2022-08-19T22:58:19;15.0;;;14.0;;
45382;SDS011;42455;51.660;5.824;2022-08-19T23:03:25;15.0;;;14.0;;
45382;SDS011;42455;51.660;5.824;2022-08-19T23:08:31;15.0;;;14.0;;
45382;SDS011;42455;51.660;5.824;2022-08-19T23:13:38;14.0;;;13.0;;
45382;SDS011;42455;51.660;5.824;2022-08-19T23:18:44;15.0;;;14.0;;
45382;SDS011;42455;51.660;5.824;2022-08-19T23:23:50;16.0;;;14.0;;
45382;SDS011;42455;51.660;5.824;2022-08-19T23:28:56;14.0;;;13.0;;
45382;SDS011;42455;51.660;5.824;2022-08-19T23:34:02;15.0;;;13.0;;
45382;SDS011;42455;51.660;5.824;2022-08-19T23:39:08;15.0;;;13.0;;
45382;SDS011;42455;51.660;5.824;2022-08-19T23:44:15;15.0;;;14.0;;
45382;SDS011;42455;51.660;5.824;2022-08-19T23:49:22;15.0;;;13.0;;
45382;SDS011;42455;51.660;5.824;2022-08-19T23:54:27;15.0;;;13.0;;
45382;SDS011;42455;51.660;5.824;2022-08-19T23:59:33;15.0;;;13.0;;
